createdAt,value
2017-11-18T00:00:06.898Z,46.77
2017-11-18T00:02:35.286Z,47.97
2017-11-18T00:05:03.741Z,42.43
2017-11-18T00:07:32.906Z,39.97
2017-11-18T00:10:01.299Z,43.30
2017-11-18T00:12:30.596Z,47.57
2017-11-18T00:14:58.993Z,38.93
2017-11-18T00:17:28.365Z,29.67
2017-11-18T00:19:56.784Z,29.50
2017-11-18T00:22:25.920Z,37.70
2017-11-18T00:24:54.305Z,47.07
2017-11-18T00:27:22.829Z,50.40
2017-11-18T00:29:52.025Z,50.00
2017-11-18T00:32:21.190Z,46.43
2017-11-18T00:34:49.817Z,38.10
2017-11-18T00:37:18.973Z,44.53
2017-11-18T00:39:47.381Z,40.73
2017-11-18T00:42:16.888Z,52.50
2017-11-18T00:44:46.174Z,41.77
2017-11-18T00:47:14.569Z,47.57
2017-11-18T00:49:44.053Z,37.27
2017-11-18T00:52:12.441Z,60.83
2017-11-18T00:54:40.892Z,40.20
2017-11-18T00:57:09.365Z,40.63
2017-11-18T00:59:37.741Z,54.83
2017-11-18T01:02:06.124Z,57.90
2017-11-18T01:04:34.568Z,48.73
2017-11-18T01:07:02.952Z,56.33
2017-11-18T01:09:31.346Z,53.60
2017-11-18T01:11:59.830Z,56.60
2017-11-18T01:14:28.235Z,48.23
2017-11-18T01:16:56.651Z,57.33
2017-11-18T01:19:25.182Z,57.20
2017-11-18T01:21:54.339Z,63.10
2017-11-18T01:24:22.730Z,45.30
2017-11-18T01:26:51.183Z,23.43
2017-11-18T01:29:20.356Z,35.10
2017-11-18T01:31:48.813Z,48.37
2017-11-18T01:34:17.576Z,19.17
2017-11-18T01:36:46.397Z,51.50
2017-11-18T01:39:14.795Z,70.07
2017-11-18T01:41:43.252Z,45.77
2017-11-18T01:44:11.693Z,49.90
2017-11-18T01:46:40.123Z,49.27
2017-11-18T01:49:08.656Z,64.27
2017-11-18T01:51:37.089Z,76.30
2017-11-18T01:54:05.502Z,70.23
2017-11-18T01:56:35.100Z,48.13
2017-11-18T01:59:03.514Z,53.73
2017-11-18T02:01:31.957Z,42.90
2017-11-18T02:04:01.178Z,75.57
2017-11-18T02:06:29.612Z,50.60
2017-11-18T02:08:58.036Z,53.80
2017-11-18T02:11:26.735Z,43.10
2017-11-18T02:13:55.160Z,59.50
2017-11-18T02:16:23.586Z,28.47
2017-11-18T02:18:52.110Z,50.63
2017-11-18T02:21:20.945Z,50.00
2017-11-18T02:23:50.145Z,24.00
2017-11-18T02:26:19.635Z,51.80
2017-11-18T02:28:48.086Z,42.50
2017-11-18T02:31:16.561Z,28.30
2017-11-18T02:33:45.388Z,58.03
2017-11-18T02:36:13.845Z,64.00
2017-11-18T02:38:42.497Z,51.17
2017-11-18T02:41:11.295Z,50.30
2017-11-18T02:43:39.748Z,45.33
2017-11-18T02:46:08.240Z,60.03
2017-11-18T02:48:36.718Z,42.33
2017-11-18T02:51:05.178Z,53.20
2017-11-18T02:53:34.483Z,25.70
2017-11-18T02:56:03.969Z,36.77
2017-11-18T02:58:33.254Z,43.90
2017-11-18T03:01:01.714Z,23.87
2017-11-18T03:03:30.192Z,19.70
2017-11-18T03:05:58.589Z,30.77
2017-11-18T03:08:27.023Z,26.37
2017-11-18T03:10:55.780Z,47.97
2017-11-18T03:13:24.963Z,24.83
2017-11-18T03:15:53.397Z,84.40
2017-11-18T03:18:22.057Z,12.83
2017-11-18T03:20:50.474Z,41.67
2017-11-18T03:23:25.045Z,43.90
2017-11-18T03:25:54.209Z,50.67
2017-11-18T03:28:22.688Z,70.10
2017-11-18T03:30:51.294Z,70.03
2017-11-18T03:33:19.712Z,64.47
2017-11-18T03:35:48.120Z,31.43
2017-11-18T03:38:19.454Z,20.10
2017-11-18T03:40:48.257Z,38.67
2017-11-18T03:43:18.812Z,34.17
2017-11-18T03:45:47.420Z,35.93
2017-11-18T03:48:19.341Z,51.43
2017-11-18T03:50:47.773Z,40.13
2017-11-18T03:53:19.267Z,45.77
2017-11-18T03:55:47.760Z,44.03
2017-11-18T04:00:58.317Z,19.87
2017-11-18T04:03:26.720Z,50.90
2017-11-18T04:05:55.106Z,13.83
2017-11-18T04:08:24.321Z,36.87
2017-11-18T04:10:52.802Z,25.33
2017-11-18T04:13:21.203Z,26.40
2017-11-18T04:15:49.885Z,14.57
2017-11-18T04:18:20.004Z,32.33
2017-11-18T04:20:48.419Z,21.90
2017-11-18T04:23:18.867Z,16.77
2017-11-18T04:25:47.299Z,18.57
2017-11-18T04:28:19.360Z,27.13
2017-11-18T04:30:47.835Z,19.47
2017-11-18T04:33:19.041Z,24.30
2017-11-18T04:35:47.455Z,32.60
2017-11-18T04:38:19.375Z,37.07
2017-11-18T04:40:47.820Z,30.90
2017-11-18T04:43:19.355Z,37.20
2017-11-18T04:45:48.138Z,26.57
2017-11-18T04:48:20.203Z,24.17
2017-11-18T04:50:49.769Z,15.23
2017-11-18T04:53:20.096Z,11.33
2017-11-18T04:55:49.269Z,46.33
2017-11-18T04:58:20.684Z,26.90
2017-11-18T05:00:49.872Z,15.17
2017-11-18T05:03:19.909Z,21.53
2017-11-18T05:05:48.671Z,15.83
2017-11-18T05:08:20.034Z,14.07
2017-11-18T05:10:49.339Z,21.30
2017-11-18T05:13:20.481Z,16.90
2017-11-18T05:15:49.670Z,45.97
2017-11-18T05:18:25.020Z,14.40
2017-11-18T05:20:54.196Z,30.13
2017-11-18T05:23:22.633Z,43.43
2017-11-18T05:25:51.432Z,21.83
2017-11-18T05:28:19.844Z,30.63
2017-11-18T05:30:48.656Z,25.60
2017-11-18T05:33:20.747Z,42.30
2017-11-18T05:35:49.256Z,41.43
2017-11-18T05:38:20.668Z,29.67
2017-11-18T05:40:49.255Z,26.37
2017-11-18T05:43:19.946Z,36.30
2017-11-18T05:45:48.353Z,45.70
2017-11-18T05:48:20.485Z,22.10
2017-11-18T05:50:48.879Z,43.17
2017-11-18T05:53:24.951Z,34.10
2017-11-18T05:55:54.105Z,17.23
2017-11-18T05:58:22.511Z,18.90
2017-11-18T06:00:51.011Z,36.70
2017-11-18T06:03:20.228Z,25.43
2017-11-18T06:05:48.654Z,7.97
2017-11-18T06:08:20.016Z,25.87
2017-11-18T06:10:48.462Z,17.27
2017-11-18T06:13:19.521Z,24.20
2017-11-18T06:15:47.961Z,34.67
2017-11-18T06:18:16.433Z,16.47
2017-11-18T06:20:44.861Z,18.33
2017-11-18T06:23:13.453Z,27.67
2017-11-18T06:25:41.860Z,38.17
2017-11-18T06:28:11.039Z,28.37
2017-11-18T06:30:40.285Z,46.20
2017-11-18T06:33:08.682Z,35.73
2017-11-18T06:35:37.182Z,42.87
2017-11-18T06:38:05.615Z,18.63
2017-11-18T06:40:34.007Z,20.30
2017-11-18T06:43:02.709Z,35.73
2017-11-18T06:45:31.556Z,27.73
2017-11-18T06:48:00.718Z,33.37
2017-11-18T06:50:29.105Z,34.03
2017-11-18T06:52:58.666Z,20.90
2017-11-18T06:55:27.076Z,16.93
2017-11-18T06:57:55.492Z,37.33
2017-11-18T07:00:24.882Z,36.33
2017-11-18T07:02:54.065Z,32.40
2017-11-18T07:05:22.467Z,33.23
2017-11-18T07:07:52.072Z,26.50
2017-11-18T07:10:21.258Z,26.53
2017-11-18T07:12:49.637Z,35.53
2017-11-18T07:15:18.325Z,34.03
2017-11-18T07:17:46.717Z,45.30
2017-11-18T07:20:15.892Z,42.90
2017-11-18T07:22:44.408Z,48.37
2017-11-18T07:25:12.807Z,27.60
2017-11-18T07:27:41.209Z,46.47
2017-11-18T07:30:10.255Z,48.77
2017-11-18T07:32:39.484Z,53.60
2017-11-18T07:35:07.890Z,33.13
2017-11-18T07:37:36.372Z,42.57
2017-11-18T07:40:04.786Z,45.67
2017-11-18T07:42:33.991Z,32.83
2017-11-18T07:45:02.665Z,19.20
2017-11-18T07:47:31.927Z,24.20
2017-11-18T07:50:00.322Z,46.93
2017-11-18T07:52:28.772Z,40.10
2017-11-18T07:54:57.169Z,36.60
2017-11-18T07:57:25.631Z,39.87
2017-11-18T07:59:54.356Z,30.77
2017-11-18T08:02:22.781Z,26.73
2017-11-18T08:04:51.226Z,37.23
2017-11-18T08:07:21.385Z,55.90
2017-11-18T08:09:49.798Z,47.53
2017-11-18T08:12:19.162Z,55.63
2017-11-18T08:14:47.613Z,44.60
2017-11-18T08:17:16.895Z,49.50
2017-11-18T08:19:45.321Z,29.80
2017-11-18T08:22:14.177Z,34.07
2017-11-18T08:24:43.348Z,45.40
2017-11-18T08:27:12.664Z,44.47
2017-11-18T08:29:42.182Z,14.67
2017-11-18T08:32:11.340Z,55.60
2017-11-18T08:34:39.801Z,16.77
2017-11-18T08:37:08.251Z,28.90
2017-11-18T08:39:37.410Z,34.73
2017-11-18T08:42:05.816Z,26.30
2017-11-18T08:44:35.231Z,33.13
2017-11-18T08:47:04.815Z,24.53
2017-11-18T08:49:33.612Z,30.00
2017-11-18T08:52:02.301Z,19.13
2017-11-18T08:54:31.509Z,24.37
2017-11-18T08:57:00.698Z,12.40
2017-11-18T08:59:29.952Z,26.03
2017-11-18T09:01:58.376Z,25.20
2017-11-18T09:04:27.592Z,26.30
2017-11-18T09:06:56.265Z,20.83
2017-11-18T09:09:25.448Z,17.37
2017-11-18T09:11:53.908Z,42.33
2017-11-18T09:14:22.527Z,20.67
2017-11-18T09:16:51.711Z,16.57
2017-11-18T09:19:20.106Z,26.57
2017-11-18T09:21:49.421Z,23.23
2017-11-18T09:24:18.008Z,23.20
2017-11-18T09:26:46.396Z,27.30
2017-11-18T09:29:15.362Z,18.27
2017-11-18T09:31:44.525Z,18.10
2017-11-18T09:34:12.937Z,26.17
2017-11-18T09:36:42.636Z,13.57
2017-11-18T09:39:11.033Z,19.33
2017-11-18T09:41:40.224Z,23.07
2017-11-18T09:44:08.827Z,11.03
2017-11-18T09:46:37.207Z,21.80
2017-11-18T09:49:05.668Z,8.07
2017-11-18T09:51:34.996Z,13.63
2017-11-18T09:54:03.502Z,19.73
2017-11-18T09:56:32.057Z,19.13
2017-11-18T09:59:00.549Z,20.23
2017-11-18T10:01:29.046Z,15.43
2017-11-18T10:03:57.548Z,17.73
2017-11-18T10:06:26.160Z,12.80
2017-11-18T10:08:55.409Z,13.13
2017-11-18T10:11:23.814Z,12.03
2017-11-18T10:13:52.456Z,29.60
2017-11-18T10:16:20.868Z,18.60
2017-11-18T10:18:49.288Z,23.00
2017-11-18T10:21:18.595Z,20.87
2017-11-18T10:23:47.014Z,20.80
2017-11-18T10:26:15.421Z,21.57
2017-11-18T10:28:44.013Z,17.23
2017-11-18T10:31:12.438Z,16.80
2017-11-18T10:33:40.864Z,24.17
2017-11-18T10:36:09.503Z,12.63
2017-11-18T10:38:38.341Z,25.77
2017-11-18T10:41:06.768Z,22.43
2017-11-18T10:43:35.245Z,15.30
2017-11-18T10:46:03.731Z,17.67
2017-11-18T10:48:32.168Z,20.50
2017-11-18T10:51:00.882Z,33.27
2017-11-18T10:53:29.464Z,25.07
2017-11-18T10:55:59.750Z,20.77
2017-11-18T10:58:28.227Z,18.57
2017-11-18T11:01:09.229Z,14.53
2017-11-18T11:03:40.846Z,14.10
2017-11-18T11:28:25.453Z,15.00
2017-11-18T11:36:43.269Z,10.00
2017-11-18T11:42:12.882Z,6.97
2017-11-18T11:44:42.093Z,4.73
2017-11-18T11:47:10.573Z,13.13
2017-11-18T11:49:39.835Z,9.97
2017-11-18T11:52:08.264Z,19.73
2017-11-18T11:54:37.240Z,16.40
2017-11-18T11:57:07.556Z,6.83
2017-11-18T11:59:36.065Z,26.97
2017-11-18T12:02:07.738Z,6.43
2017-11-18T12:04:37.063Z,4.47
2017-11-18T12:07:05.549Z,15.13
2017-11-18T12:09:34.338Z,9.43
2017-11-18T12:12:03.415Z,12.63
2017-11-18T12:14:32.043Z,7.60
2017-11-18T12:17:01.314Z,5.33
2017-11-18T12:19:29.945Z,7.90
2017-11-18T12:21:58.387Z,3.63
2017-11-18T12:24:26.935Z,6.63
2017-11-18T12:26:55.466Z,14.20
2017-11-18T12:29:25.372Z,13.87
2017-11-18T12:31:54.669Z,5.97
2017-11-18T12:34:23.321Z,6.53
2017-11-18T12:36:51.797Z,10.07
2017-11-18T12:39:20.309Z,2.37
2017-11-18T12:41:48.799Z,14.30
2017-11-18T12:44:17.325Z,8.20
2017-11-18T12:46:45.837Z,8.80
2017-11-18T12:49:14.720Z,6.80
2017-11-18T12:51:43.131Z,5.57
2017-11-18T12:54:11.605Z,10.30
2017-11-18T12:56:40.604Z,10.33
2017-11-18T12:59:09.855Z,13.63
2017-11-18T13:01:40.277Z,15.17
2017-11-18T13:04:08.791Z,12.43
2017-11-18T13:06:37.245Z,26.37
2017-11-18T15:04:55.738Z,6.07
2017-11-18T15:07:25.102Z,5.00
2017-11-18T15:09:53.813Z,14.20
2017-11-18T15:12:23.860Z,10.50
2017-11-18T15:18:18.431Z,3.20
2017-11-18T15:20:52.467Z,8.63
2017-11-18T15:26:28.397Z,15.50
2017-11-18T15:29:00.830Z,6.10
2017-11-18T15:31:46.032Z,5.70
2017-11-18T15:34:31.035Z,10.33
2017-11-18T15:37:19.129Z,8.20
2017-11-18T15:39:47.956Z,9.53
2017-11-18T15:42:16.498Z,10.33
2017-11-18T15:44:51.619Z,7.90
2017-11-18T15:47:40.617Z,4.33
2017-11-18T15:50:17.920Z,2.60
2017-11-18T15:53:05.967Z,14.80
2017-11-18T15:55:39.351Z,21.73
2017-11-18T15:58:19.406Z,10.57
2017-11-18T16:00:54.808Z,6.90
2017-11-18T16:03:28.388Z,7.63
